createdAt,value
2023-09-27T00:01:29.746Z,15.41
2023-09-27T00:03:57.421Z,15.40
2023-09-27T00:06:25.241Z,15.42
2023-09-27T00:08:52.682Z,15.44
2023-09-27T00:11:20.596Z,15.48
2023-09-27T00:13:48.162Z,15.46
2023-09-27T00:16:15.486Z,15.39
2023-09-27T00:18:42.817Z,15.42
2023-09-27T00:21:10.096Z,15.46
2023-09-27T00:23:37.355Z,15.43
2023-09-27T00:26:04.939Z,15.34
2023-09-27T00:28:32.298Z,15.28
2023-09-27T00:30:59.646Z,15.33
2023-09-27T00:33:27.028Z,15.32
2023-09-27T00:35:54.605Z,15.47
2023-09-27T00:38:21.936Z,15.45
2023-09-27T00:40:49.446Z,15.29
2023-09-27T00:43:29.681Z,15.29
2023-09-27T00:46:07.352Z,15.31
2023-09-27T00:48:36.303Z,15.16
2023-09-27T00:51:03.738Z,14.98
2023-09-27T00:53:33.319Z,15.03
2023-09-27T00:56:01.311Z,15.06
2023-09-27T00:58:28.790Z,15.07
2023-09-27T01:00:56.078Z,15.11
2023-09-27T01:03:23.405Z,15.06
2023-09-27T01:05:50.805Z,14.94
2023-09-27T01:08:18.211Z,14.90
2023-09-27T01:10:46.241Z,14.92
2023-09-27T01:13:13.735Z,14.97
2023-09-27T01:15:42.175Z,14.97
2023-09-27T01:18:09.727Z,15.01
2023-09-27T01:20:37.138Z,15.00
2023-09-27T01:23:05.027Z,14.99
2023-09-27T01:25:39.117Z,14.93
2023-09-27T01:28:08.583Z,14.79
2023-09-27T01:30:36.454Z,14.84
2023-09-27T01:33:08.265Z,14.88
2023-09-27T01:35:45.095Z,14.87
2023-09-27T01:38:13.037Z,14.84
2023-09-27T01:40:44.680Z,14.77
2023-09-27T01:43:12.714Z,14.71
2023-09-27T01:45:40.155Z,14.64
2023-09-27T01:48:07.746Z,14.67
2023-09-27T01:50:35.695Z,14.68
2023-09-27T01:53:04.374Z,14.62
2023-09-27T01:55:32.442Z,14.60
2023-09-27T01:58:01.264Z,14.59
2023-09-27T02:00:28.935Z,14.63
2023-09-27T02:02:57.688Z,14.55
2023-09-27T02:05:25.908Z,14.67
2023-09-27T02:07:53.365Z,14.64
2023-09-27T02:10:21.690Z,14.58
2023-09-27T02:12:48.988Z,14.60
2023-09-27T02:15:16.664Z,14.57
2023-09-27T02:17:44.255Z,14.49
2023-09-27T02:20:13.679Z,14.44
2023-09-27T02:22:41.723Z,14.35
2023-09-27T02:25:10.852Z,14.37
2023-09-27T02:27:41.844Z,14.28
2023-09-27T02:30:12.580Z,14.32
2023-09-27T02:32:43.797Z,14.30
2023-09-27T02:35:12.085Z,14.21
2023-09-27T02:37:41.071Z,14.13
2023-09-27T02:40:15.787Z,14.12
2023-09-27T02:42:44.504Z,14.11
2023-09-27T02:45:12.673Z,14.07
2023-09-27T02:47:40.882Z,14.13
2023-09-27T02:50:11.544Z,14.16
2023-09-27T02:52:42.173Z,14.10
2023-09-27T02:55:10.643Z,13.94
2023-09-27T02:57:39.759Z,13.91
2023-09-27T03:00:07.904Z,13.89
2023-09-27T03:02:36.135Z,13.81
2023-09-27T03:05:08.161Z,13.82
2023-09-27T03:07:35.437Z,13.83
2023-09-27T03:10:09.844Z,13.76
2023-09-27T03:12:39.743Z,13.76
2023-09-27T03:15:12.670Z,13.80
2023-09-27T03:17:43.683Z,13.73
2023-09-27T03:20:20.852Z,13.83
2023-09-27T03:22:49.388Z,13.84
2023-09-27T03:25:20.063Z,13.82
2023-09-27T03:27:47.926Z,13.78
2023-09-27T03:30:16.180Z,13.80
2023-09-27T03:32:43.925Z,13.74
2023-09-27T03:35:11.270Z,13.77
2023-09-27T03:37:38.583Z,13.73
2023-09-27T03:40:14.699Z,13.81
2023-09-27T03:42:46.308Z,13.70
2023-09-27T03:45:15.562Z,13.61
2023-09-27T03:47:46.970Z,13.54
2023-09-27T03:50:18.829Z,13.54
2023-09-27T03:52:46.181Z,13.55
2023-09-27T03:55:13.698Z,13.51
2023-09-27T03:57:41.371Z,13.43
2023-09-27T04:00:15.043Z,13.39
2023-09-27T04:02:43.901Z,13.40
2023-09-27T04:05:12.211Z,13.43
2023-09-27T04:07:40.491Z,13.39
2023-09-27T04:10:09.110Z,13.36
2023-09-27T04:12:36.533Z,13.35
2023-09-27T04:15:07.926Z,13.39
2023-09-27T04:17:35.330Z,13.39
2023-09-27T04:20:07.973Z,13.41
2023-09-27T04:22:35.439Z,13.48
2023-09-27T04:25:02.993Z,13.47
2023-09-27T04:27:30.264Z,13.51
2023-09-27T04:29:57.560Z,13.59
2023-09-27T04:32:26.596Z,13.62
2023-09-27T04:34:53.868Z,13.56
2023-09-27T04:37:21.134Z,13.63
2023-09-27T04:39:48.492Z,13.65
2023-09-27T04:42:15.780Z,13.61
2023-09-27T04:44:43.240Z,13.61
2023-09-27T04:47:10.647Z,13.58
2023-09-27T04:49:37.972Z,13.60
2023-09-27T04:52:05.272Z,13.66
2023-09-27T04:54:33.046Z,13.67
2023-09-27T04:57:00.331Z,13.66
2023-09-27T04:59:27.655Z,13.74
2023-09-27T05:01:54.942Z,13.78
2023-09-27T05:04:22.559Z,13.85
2023-09-27T05:06:49.976Z,13.94
2023-09-27T05:09:19.260Z,14.01
2023-09-27T05:11:48.073Z,14.12
2023-09-27T05:14:15.612Z,14.21
2023-09-27T05:16:43.040Z,14.29
2023-09-27T05:19:10.440Z,14.44
2023-09-27T05:21:40.549Z,14.51
2023-09-27T05:24:08.829Z,14.58
2023-09-27T05:26:36.195Z,14.68
2023-09-27T05:29:03.782Z,14.60
2023-09-27T05:31:31.207Z,14.84
2023-09-27T05:33:58.587Z,14.94
2023-09-27T05:36:25.872Z,14.98
2023-09-27T05:38:53.393Z,15.00
2023-09-27T05:41:20.991Z,15.06
2023-09-27T05:43:48.349Z,15.15
2023-09-27T05:46:15.716Z,15.24
2023-09-27T05:48:43.051Z,15.37
2023-09-27T05:51:10.760Z,15.53
2023-09-27T05:53:38.049Z,15.59
2023-09-27T05:56:05.451Z,15.63
2023-09-27T05:58:37.098Z,15.76
2023-09-27T06:01:06.120Z,15.85
2023-09-27T06:03:33.617Z,15.85
2023-09-27T06:06:01.049Z,16.00
2023-09-27T06:08:28.409Z,16.11
2023-09-27T06:10:56.914Z,16.20
2023-09-27T06:13:25.130Z,16.32
2023-09-27T06:15:52.613Z,16.44
2023-09-27T06:18:20.419Z,16.53
2023-09-27T06:20:48.740Z,16.56
2023-09-27T06:23:16.094Z,16.67
2023-09-27T06:25:44.980Z,16.74
2023-09-27T06:28:14.646Z,16.83
2023-09-27T06:30:42.252Z,16.93
2023-09-27T06:33:10.480Z,17.05
2023-09-27T06:35:38.079Z,17.22
2023-09-27T06:38:06.929Z,17.34
2023-09-27T06:40:34.259Z,17.44
2023-09-27T06:43:02.059Z,17.60
2023-09-27T06:45:30.128Z,17.69
2023-09-27T06:47:57.771Z,17.80
2023-09-27T06:50:25.313Z,17.88
2023-09-27T06:52:59.957Z,18.03
2023-09-27T06:55:34.658Z,18.10
2023-09-27T06:58:02.008Z,18.27
2023-09-27T07:00:29.417Z,18.37
2023-09-27T07:02:56.955Z,18.47
2023-09-27T07:05:24.733Z,18.62
2023-09-27T07:07:52.106Z,18.70
2023-09-27T07:10:19.501Z,18.89
2023-09-27T07:12:47.518Z,19.02
2023-09-27T07:15:15.471Z,19.09
2023-09-27T07:17:44.928Z,19.21
2023-09-27T07:20:39.046Z,19.31
2023-09-27T07:23:07.657Z,19.44
2023-09-27T07:25:39.263Z,19.57
2023-09-27T07:28:06.946Z,19.66
2023-09-27T07:30:34.984Z,19.81
2023-09-27T07:33:07.422Z,19.92
2023-09-27T07:35:36.340Z,20.02
2023-09-27T07:38:03.978Z,20.12
2023-09-27T07:40:31.533Z,20.23
2023-09-27T07:42:59.903Z,20.26
2023-09-27T07:45:31.453Z,20.31
2023-09-27T07:47:58.949Z,20.44
2023-09-27T07:50:32.587Z,20.43
2023-09-27T07:53:00.601Z,20.62
2023-09-27T07:55:28.217Z,20.63
2023-09-27T07:57:55.715Z,20.76
2023-09-27T08:00:29.597Z,20.91
2023-09-27T08:02:59.433Z,20.98
2023-09-27T08:05:27.005Z,21.05
2023-09-27T08:07:54.272Z,21.22
2023-09-27T08:10:22.514Z,21.09
2023-09-27T08:12:49.932Z,21.10
2023-09-27T08:15:19.140Z,21.29
2023-09-27T08:17:48.731Z,21.25
2023-09-27T08:20:16.610Z,21.35
2023-09-27T08:22:44.032Z,21.45
2023-09-27T08:25:18.437Z,21.56
2023-09-27T08:27:46.133Z,21.62
2023-09-27T08:30:13.985Z,21.63
2023-09-27T08:32:43.030Z,21.78
2023-09-27T08:35:11.109Z,21.89
2023-09-27T08:37:38.593Z,21.96
2023-09-27T08:40:08.563Z,22.09
2023-09-27T08:42:36.001Z,22.11
2023-09-27T08:45:04.331Z,22.15
2023-09-27T08:47:32.037Z,22.19
2023-09-27T08:50:01.016Z,22.27
2023-09-27T08:52:29.331Z,22.28
2023-09-27T08:54:56.604Z,22.28
2023-09-27T08:57:25.386Z,22.34
2023-09-27T08:59:53.060Z,22.52
2023-09-27T09:02:20.794Z,22.50
2023-09-27T09:04:48.168Z,22.59
2023-09-27T09:07:15.870Z,22.60
2023-09-27T09:09:43.225Z,22.73
2023-09-27T09:12:10.999Z,22.79
2023-09-27T09:14:50.842Z,22.93
2023-09-27T09:17:20.253Z,23.09
2023-09-27T09:20:16.713Z,23.14
2023-09-27T09:22:47.777Z,23.19
2023-09-27T09:25:15.240Z,23.25
2023-09-27T09:27:44.992Z,23.26
2023-09-27T09:30:13.030Z,23.40
2023-09-27T09:32:52.976Z,23.37
2023-09-27T09:35:33.210Z,23.53
2023-09-27T09:38:02.784Z,23.72
2023-09-27T09:40:31.528Z,23.79
2023-09-27T09:43:01.034Z,23.86
2023-09-27T09:45:30.201Z,23.90
2023-09-27T09:47:58.777Z,24.10
2023-09-27T09:50:28.311Z,24.18
2023-09-27T09:52:58.655Z,24.34
2023-09-27T09:55:48.545Z,24.40
2023-09-27T09:58:14.818Z,24.52
2023-09-27T10:00:43.556Z,24.63
2023-09-27T10:03:11.002Z,24.52
2023-09-27T10:05:39.558Z,24.66
2023-09-27T10:08:07.416Z,24.57
2023-09-27T10:10:35.465Z,24.50
2023-09-27T10:13:05.461Z,24.71
2023-09-27T10:15:34.790Z,24.93
2023-09-27T10:18:23.884Z,24.89
2023-09-27T10:21:06.537Z,24.97
2023-09-27T10:23:49.138Z,25.18
2023-09-27T10:26:34.480Z,25.17
2023-09-27T10:29:15.239Z,25.21
2023-09-27T10:31:58.120Z,25.49
2023-09-27T10:34:37.480Z,25.67
2023-09-27T10:37:17.931Z,25.75
2023-09-27T10:40:23.806Z,25.84
2023-09-27T10:42:51.177Z,25.87
2023-09-27T10:45:18.876Z,26.03
2023-09-27T10:47:48.111Z,26.09
2023-09-27T10:50:17.828Z,26.16
2023-09-27T10:52:45.355Z,26.24
2023-09-27T10:55:13.538Z,26.26
2023-09-27T10:57:41.485Z,26.25
2023-09-27T11:00:12.640Z,26.20
2023-09-27T11:02:40.310Z,26.43
2023-09-27T11:05:09.064Z,26.65
2023-09-27T11:07:43.812Z,26.73
2023-09-27T11:10:11.368Z,26.64
2023-09-27T11:12:38.747Z,26.84
2023-09-27T11:15:07.023Z,27.01
2023-09-27T11:17:34.416Z,27.09
2023-09-27T11:20:11.904Z,27.18
2023-09-27T11:22:39.265Z,27.14
2023-09-27T11:25:26.292Z,26.96
2023-09-27T11:27:53.657Z,26.87
2023-09-27T11:30:27.572Z,27.13
2023-09-27T11:32:55.784Z,27.17
2023-09-27T11:35:25.438Z,27.18
2023-09-27T11:38:13.400Z,27.38
2023-09-27T11:40:44.123Z,27.32
2023-09-27T11:43:13.647Z,27.45
2023-09-27T11:45:48.994Z,27.48
2023-09-27T11:48:17.486Z,27.48
2023-09-27T11:50:45.011Z,27.61
2023-09-27T11:53:13.856Z,27.61
2023-09-27T11:55:42.487Z,27.71
2023-09-27T11:58:10.267Z,27.73
2023-09-27T12:00:37.815Z,27.85
2023-09-27T12:03:06.057Z,27.93
2023-09-27T12:05:39.249Z,27.91
2023-09-27T12:08:06.965Z,28.08
2023-09-27T12:10:34.331Z,28.01
2023-09-27T12:13:01.744Z,27.96
2023-09-27T12:15:29.490Z,28.10
2023-09-27T12:17:57.052Z,28.28
2023-09-27T12:22:59.781Z,28.29
2023-09-27T12:25:28.223Z,28.26
2023-09-27T12:27:55.611Z,28.32
2023-09-27T12:30:22.880Z,28.17
2023-09-27T12:32:52.477Z,28.12
2023-09-27T12:35:21.469Z,28.29
2023-09-27T12:37:49.471Z,28.30
2023-09-27T12:40:16.978Z,28.49
2023-09-27T12:42:44.339Z,28.46
2023-09-27T12:45:11.837Z,28.38
2023-09-27T12:47:39.280Z,28.37
2023-09-27T12:50:07.905Z,28.38
2023-09-27T12:52:35.808Z,28.61
2023-09-27T12:55:03.347Z,28.67
2023-09-27T12:57:30.627Z,28.72
2023-09-27T12:59:58.121Z,28.62
2023-09-27T13:02:28.706Z,28.60
2023-09-27T13:04:56.097Z,28.63
2023-09-27T13:07:23.422Z,28.69
2023-09-27T13:09:51.484Z,28.78
2023-09-27T13:12:18.907Z,28.99
2023-09-27T13:14:46.568Z,29.08
2023-09-27T13:17:13.900Z,29.12
2023-09-27T13:19:41.270Z,29.07
2023-09-27T13:22:08.618Z,28.94
2023-09-27T13:24:35.949Z,29.02
2023-09-27T13:27:03.221Z,28.96
2023-09-27T13:29:30.592Z,28.94
2023-09-27T13:31:58.491Z,28.92
2023-09-27T13:34:25.736Z,28.89
2023-09-27T13:36:53.171Z,28.99
2023-09-27T13:39:26.316Z,29.09
2023-09-27T13:41:53.913Z,29.25
2023-09-27T13:44:21.380Z,29.13
2023-09-27T13:46:50.510Z,28.95
2023-09-27T13:49:18.349Z,28.93
2023-09-27T13:51:45.634Z,28.76
2023-09-27T13:54:15.717Z,28.86
2023-09-27T13:56:43.155Z,28.87
2023-09-27T13:59:10.465Z,28.98
2023-09-27T14:01:38.173Z,29.03
2023-09-27T14:04:05.768Z,29.34
2023-09-27T14:06:33.105Z,29.63
2023-09-27T14:09:00.417Z,30.66
2023-09-27T14:11:27.873Z,31.39
2023-09-27T14:13:55.333Z,32.02
2023-09-27T14:16:23.005Z,32.09
2023-09-27T14:18:50.359Z,32.50
2023-09-27T14:21:17.794Z,32.53
2023-09-27T14:23:45.589Z,32.82
2023-09-27T14:26:13.109Z,32.87
2023-09-27T14:28:40.569Z,32.44
2023-09-27T14:31:07.979Z,32.68
2023-09-27T14:33:36.464Z,33.01
2023-09-27T14:36:05.325Z,33.12
2023-09-27T14:38:35.794Z,32.03
2023-09-27T14:41:12.214Z,31.98
2023-09-27T14:43:39.866Z,31.94
2023-09-27T14:46:11.676Z,31.92
2023-09-27T14:48:39.673Z,31.98
2023-09-27T14:51:09.116Z,31.72
2023-09-27T14:53:41.899Z,31.59
2023-09-27T14:56:09.639Z,31.57
2023-09-27T14:58:37.030Z,30.69
2023-09-27T15:01:05.345Z,30.14
2023-09-27T15:03:33.560Z,28.98
2023-09-27T15:06:04.712Z,27.96
2023-09-27T15:08:32.106Z,27.27
2023-09-27T15:10:59.571Z,26.94
2023-09-27T15:13:27.667Z,26.72
2023-09-27T15:15:55.496Z,26.54
2023-09-27T15:18:25.749Z,26.35
2023-09-27T15:20:54.880Z,26.06
2023-09-27T15:23:22.362Z,25.93
2023-09-27T15:25:50.131Z,25.73
2023-09-27T15:28:17.742Z,25.43
2023-09-27T15:30:45.214Z,25.16
2023-09-27T15:33:12.661Z,25.02
2023-09-27T15:35:40.281Z,24.77
2023-09-27T15:38:08.009Z,24.58
2023-09-27T15:40:35.469Z,24.37
2023-09-27T15:43:02.915Z,24.12
2023-09-27T15:45:31.155Z,23.96
2023-09-27T15:47:58.793Z,23.76
2023-09-27T15:50:27.264Z,23.58
2023-09-27T15:52:54.605Z,23.44
2023-09-27T15:55:21.932Z,23.18
2023-09-27T15:57:49.300Z,22.94
2023-09-27T16:00:17.500Z,22.76
2023-09-27T16:02:45.926Z,22.62
2023-09-27T16:05:13.646Z,22.48
2023-09-27T16:07:41.297Z,22.31
2023-09-27T16:10:10.225Z,22.15
2023-09-27T16:12:37.771Z,21.98
2023-09-27T16:15:07.882Z,21.86
2023-09-27T16:17:36.775Z,21.81
2023-09-27T16:20:06.260Z,21.76
2023-09-27T16:22:33.612Z,21.67
2023-09-27T16:25:04.860Z,21.76
2023-09-27T16:27:32.589Z,21.89
2023-09-27T16:30:00.090Z,21.99
2023-09-27T16:32:27.961Z,21.94
2023-09-27T16:34:55.418Z,21.81
2023-09-27T16:37:22.863Z,21.58
2023-09-27T16:39:50.697Z,21.49
2023-09-27T16:42:18.054Z,21.39
2023-09-27T16:44:45.435Z,21.18
2023-09-27T16:47:12.839Z,21.07
2023-09-27T16:49:40.836Z,20.99
2023-09-27T16:52:08.119Z,20.96
2023-09-27T16:54:35.468Z,20.88
2023-09-27T16:57:03.793Z,20.77
2023-09-27T16:59:31.140Z,20.70
2023-09-27T17:01:58.644Z,20.62
2023-09-27T17:04:26.126Z,20.47
2023-09-27T17:06:53.480Z,20.41
2023-09-27T17:09:20.788Z,20.25
2023-09-27T17:11:48.066Z,20.28
2023-09-27T17:14:15.355Z,20.25
2023-09-27T17:16:43.055Z,20.23
2023-09-27T17:19:10.365Z,20.08
2023-09-27T17:21:39.507Z,19.95
2023-09-27T17:24:07.081Z,19.85
2023-09-27T17:26:34.442Z,19.79
2023-09-27T17:29:01.776Z,19.78
2023-09-27T17:31:29.199Z,19.67
2023-09-27T17:33:56.765Z,19.66
2023-09-27T17:36:24.233Z,19.69
2023-09-27T17:38:51.520Z,19.57
2023-09-27T17:41:18.890Z,19.47
2023-09-27T17:43:46.241Z,19.41
2023-09-27T17:46:23.219Z,19.34
2023-09-27T17:48:50.737Z,19.37
2023-09-27T17:51:18.076Z,19.34
2023-09-27T17:53:45.471Z,19.27
2023-09-27T17:56:12.789Z,19.13
2023-09-27T17:58:40.151Z,19.01
2023-09-27T18:01:07.523Z,18.93
2023-09-27T18:03:34.926Z,19.02
2023-09-27T18:06:06.528Z,19.15
2023-09-27T18:08:34.096Z,19.03
2023-09-27T18:11:15.534Z,18.90
2023-09-27T18:13:43.393Z,18.89
2023-09-27T18:16:18.078Z,18.82
2023-09-27T18:18:46.103Z,18.71
2023-09-27T18:21:13.710Z,18.66
2023-09-27T18:23:42.424Z,18.49
2023-09-27T18:26:13.129Z,18.55
2023-09-27T18:28:40.458Z,18.55
2023-09-27T18:31:08.379Z,18.59
2023-09-27T18:33:35.694Z,18.50
2023-09-27T18:36:03.941Z,18.37
2023-09-27T18:38:31.259Z,18.29
2023-09-27T18:40:58.704Z,18.22
2023-09-27T18:43:26.192Z,18.08
2023-09-27T18:45:53.768Z,17.99
2023-09-27T18:48:21.477Z,17.96
2023-09-27T18:50:50.002Z,17.92
2023-09-27T18:53:17.660Z,18.02
2023-09-27T18:55:45.705Z,17.88
2023-09-27T18:58:15.358Z,17.90
2023-09-27T19:00:43.062Z,18.13
2023-09-27T19:03:11.013Z,17.96
2023-09-27T19:05:38.380Z,17.89
2023-09-27T19:08:05.862Z,17.80
2023-09-27T19:10:33.495Z,17.71
2023-09-27T19:13:00.866Z,17.64
2023-09-27T19:15:28.237Z,17.60
2023-09-27T19:17:57.910Z,17.52
2023-09-27T19:20:25.529Z,17.44
2023-09-27T19:22:54.077Z,17.35
2023-09-27T19:25:21.993Z,17.31
2023-09-27T19:27:49.863Z,17.25
2023-09-27T19:30:17.347Z,17.29
2023-09-27T19:32:45.233Z,17.22
2023-09-27T19:35:16.038Z,17.18
2023-09-27T19:37:43.714Z,17.17
2023-09-27T19:40:11.541Z,17.14
2023-09-27T19:42:38.981Z,17.13
2023-09-27T19:45:07.009Z,17.07
2023-09-27T19:47:36.119Z,17.00
2023-09-27T19:50:05.548Z,16.87
2023-09-27T19:52:34.065Z,16.80
2023-09-27T19:55:01.643Z,16.77
2023-09-27T19:57:29.829Z,16.66
2023-09-27T19:59:57.179Z,16.62
2023-09-27T20:02:24.776Z,16.52
2023-09-27T20:04:54.618Z,16.45
2023-09-27T20:07:23.479Z,16.44
2023-09-27T20:09:50.847Z,16.39
2023-09-27T20:12:18.145Z,16.47
2023-09-27T20:14:45.505Z,16.44
2023-09-27T20:17:13.136Z,16.34
2023-09-27T20:19:40.582Z,16.45
2023-09-27T20:22:08.229Z,16.39
2023-09-27T20:24:38.900Z,16.30
2023-09-27T20:27:06.327Z,16.12
2023-09-27T20:29:33.677Z,16.09
2023-09-27T20:32:01.257Z,15.96
2023-09-27T20:34:28.770Z,16.01
2023-09-27T20:36:56.069Z,16.02
2023-09-27T20:39:23.380Z,15.94
2023-09-27T20:41:50.896Z,15.89
2023-09-27T20:44:18.256Z,15.87
2023-09-27T20:46:45.677Z,15.83
2023-09-27T20:49:13.019Z,15.83
2023-09-27T20:51:40.404Z,15.83
2023-09-27T20:54:07.719Z,15.78
2023-09-27T20:56:34.976Z,15.82
2023-09-27T20:59:02.402Z,15.77
2023-09-27T21:01:36.887Z,15.81
2023-09-27T21:04:04.867Z,15.85
2023-09-27T21:06:32.282Z,15.89
2023-09-27T21:09:03.782Z,15.84
2023-09-27T21:11:31.375Z,15.90
2023-09-27T21:14:00.520Z,15.92
2023-09-27T21:16:29.262Z,15.94
2023-09-27T21:18:56.734Z,15.95
2023-09-27T21:21:24.172Z,15.98
2023-09-27T21:23:52.792Z,15.92
2023-09-27T21:26:20.603Z,15.85
2023-09-27T21:28:48.021Z,15.79
2023-09-27T21:31:15.450Z,15.70
2023-09-27T21:33:43.267Z,15.65
2023-09-27T21:36:10.593Z,15.51
2023-09-27T21:38:38.011Z,15.41
2023-09-27T21:41:05.446Z,15.36
2023-09-27T21:43:35.638Z,15.26
2023-09-27T21:46:04.043Z,15.33
2023-09-27T21:48:31.598Z,15.37
2023-09-27T21:50:58.871Z,15.35
2023-09-27T21:53:26.170Z,15.29
2023-09-27T21:55:54.284Z,15.20
2023-09-27T21:58:21.679Z,15.23
2023-09-27T22:00:49.045Z,15.24
2023-09-27T22:03:18.342Z,15.25
2023-09-27T22:05:45.895Z,15.24
2023-09-27T22:08:24.131Z,15.19
2023-09-27T22:10:51.571Z,15.24
2023-09-27T22:13:24.877Z,15.14
2023-09-27T22:15:53.201Z,15.11
2023-09-27T22:18:21.161Z,15.10
2023-09-27T22:20:48.872Z,15.17
2023-09-27T22:23:25.420Z,15.15
2023-09-27T22:25:54.908Z,15.12
2023-09-27T22:28:23.124Z,15.12
2023-09-27T22:30:50.442Z,15.08
2023-09-27T22:33:26.513Z,15.03
2023-09-27T22:35:53.774Z,15.02
2023-09-27T22:38:21.034Z,15.01
2023-09-27T22:40:48.649Z,14.95
2023-09-27T22:43:17.373Z,14.84
2023-09-27T22:45:49.039Z,14.83
2023-09-27T22:48:17.296Z,14.75
2023-09-27T22:50:46.060Z,14.74
2023-09-27T22:53:14.751Z,14.71
2023-09-27T22:55:51.536Z,14.64
2023-09-27T22:58:23.395Z,14.56
2023-09-27T23:00:58.391Z,14.52
2023-09-27T23:03:30.734Z,14.50
2023-09-27T23:05:58.453Z,14.47
2023-09-27T23:08:28.610Z,14.49
2023-09-27T23:10:58.005Z,14.55
2023-09-27T23:13:32.384Z,14.41
2023-09-27T23:16:00.584Z,14.20
2023-09-27T23:18:30.401Z,14.08
2023-09-27T23:20:58.881Z,13.94
2023-09-27T23:23:26.516Z,13.92
2023-09-27T23:25:55.321Z,13.98
2023-09-27T23:28:31.641Z,14.07
2023-09-27T23:31:09.424Z,14.10
2023-09-27T23:33:43.796Z,14.21
2023-09-27T23:36:25.347Z,14.11
2023-09-27T23:38:59.765Z,14.21
2023-09-27T23:41:31.093Z,14.18
2023-09-27T23:44:05.881Z,14.20
2023-09-27T23:46:38.406Z,14.15
2023-09-27T23:49:06.611Z,14.21
2023-09-27T23:51:34.165Z,14.26
2023-09-27T23:54:03.876Z,14.23
2023-09-27T23:56:31.613Z,14.13
2023-09-27T23:59:09.859Z,14.22
